createdAt,value
2022-12-26T00:00:08.261Z,9.40
2022-12-26T00:00:20.797Z,9.40
2022-12-26T00:00:34.065Z,9.40
2022-12-26T00:00:46.569Z,9.39
2022-12-26T00:00:58.323Z,9.39
2022-12-26T00:01:10.361Z,9.40
2022-12-26T00:01:22.816Z,9.40
2022-12-26T00:01:33.583Z,9.40
2022-12-26T00:01:46.552Z,9.39
2022-12-26T00:01:59.308Z,9.40
2022-12-26T00:02:13.013Z,9.39
2022-12-26T00:02:26.271Z,9.40
2022-12-26T00:02:38.009Z,9.39
2022-12-26T00:02:48.892Z,9.40
2022-12-26T00:02:59.953Z,9.42
2022-12-26T00:03:10.797Z,9.39
2022-12-26T00:03:23.125Z,9.40
2022-12-26T00:03:35.722Z,9.40
2022-12-26T00:03:47.674Z,9.40
2022-12-26T00:03:58.624Z,9.40
2022-12-26T00:04:49.052Z,9.40
2022-12-26T00:04:49.383Z,9.40
2022-12-26T00:04:50.901Z,9.42
2022-12-26T00:04:56.326Z,9.42
2022-12-26T00:05:07.120Z,9.42
2022-12-26T00:05:17.875Z,9.42
2022-12-26T00:05:28.604Z,9.40
2022-12-26T00:05:39.333Z,9.42
2022-12-26T00:05:50.068Z,9.42
2022-12-26T00:06:00.802Z,9.42
2022-12-26T00:06:11.533Z,9.42
2022-12-26T00:06:22.264Z,9.42
2022-12-26T00:06:33.005Z,9.40
2022-12-26T00:06:43.788Z,9.40
2022-12-26T00:06:54.553Z,9.42
2022-12-26T00:07:06.255Z,9.42
2022-12-26T00:07:16.986Z,9.42
2022-12-26T00:07:27.734Z,9.42
2022-12-26T00:07:40.148Z,9.40
2022-12-26T00:07:54.873Z,9.42
2022-12-26T00:08:07.602Z,9.42
2022-12-26T00:08:18.387Z,9.42
2022-12-26T00:08:30.081Z,9.42
2022-12-26T00:08:42.061Z,9.42
2022-12-26T00:08:52.767Z,9.43
2022-12-26T00:09:03.516Z,9.42
2022-12-26T00:09:14.236Z,9.42
2022-12-26T00:09:26.675Z,9.42
2022-12-26T00:09:37.428Z,9.42
2022-12-26T00:09:49.875Z,9.43
2022-12-26T00:10:00.675Z,9.42
2022-12-26T00:10:11.405Z,9.43
2022-12-26T00:10:22.366Z,9.43
2022-12-26T00:10:34.584Z,9.42
2022-12-26T00:10:45.323Z,9.42
2022-12-26T00:10:57.023Z,9.42
2022-12-26T00:11:08.763Z,9.42
2022-12-26T00:11:21.445Z,9.42
2022-12-26T00:11:33.882Z,9.42
2022-12-26T00:11:45.596Z,9.42
2022-12-26T00:11:57.936Z,9.42
2022-12-26T00:12:10.408Z,9.42
2022-12-26T00:12:22.935Z,9.42
2022-12-26T00:12:35.352Z,9.42
2022-12-26T00:12:47.795Z,9.42
2022-12-26T00:13:38.241Z,9.42
2022-12-26T00:13:39.042Z,9.42
2022-12-26T00:13:39.952Z,9.42
2022-12-26T00:13:46.830Z,9.40
2022-12-26T00:13:57.565Z,9.40
2022-12-26T00:14:08.296Z,9.40
2022-12-26T00:14:19.058Z,9.40
2022-12-26T00:14:29.788Z,9.40
2022-12-26T00:14:40.540Z,9.42
2022-12-26T00:14:51.269Z,9.40
2022-12-26T00:15:02.010Z,9.40
2022-12-26T00:15:14.416Z,9.42
2022-12-26T00:15:25.156Z,9.42
2022-12-26T00:15:35.916Z,9.42
2022-12-26T00:15:46.632Z,9.40
2022-12-26T00:15:57.392Z,9.42
2022-12-26T00:16:08.178Z,9.42
2022-12-26T00:16:19.018Z,9.42
2022-12-26T00:16:29.914Z,9.42
2022-12-26T00:16:40.710Z,9.42
2022-12-26T00:16:51.474Z,9.43
2022-12-26T00:17:02.228Z,9.42
2022-12-26T00:17:13.938Z,9.43
2022-12-26T00:17:24.698Z,9.42
2022-12-26T00:17:35.472Z,9.42
2022-12-26T00:17:46.188Z,9.40
2022-12-26T00:17:56.916Z,9.42
2022-12-26T00:18:12.123Z,9.42
2022-12-26T00:18:24.890Z,9.42
2022-12-26T00:18:37.329Z,9.43
2022-12-26T00:18:49.054Z,9.43
2022-12-26T00:18:59.802Z,9.43
2022-12-26T00:19:10.527Z,9.42
2022-12-26T00:19:23.007Z,9.43
2022-12-26T00:19:33.731Z,9.43
2022-12-26T00:19:45.415Z,9.42
2022-12-26T00:19:56.180Z,9.42
2022-12-26T00:20:06.921Z,9.43
2022-12-26T00:20:20.126Z,9.43
2022-12-26T00:20:30.861Z,9.42
2022-12-26T00:20:41.598Z,9.43
2022-12-26T00:20:53.315Z,9.42
2022-12-26T00:21:04.094Z,9.43
2022-12-26T00:21:14.818Z,9.42
2022-12-26T00:21:26.510Z,9.42
2022-12-26T00:21:38.209Z,9.42
2022-12-26T00:21:48.977Z,9.42
2022-12-26T00:21:59.728Z,9.43
2022-12-26T00:22:13.453Z,9.42
2022-12-26T00:22:26.625Z,9.40
2022-12-26T00:22:39.857Z,9.42
2022-12-26T00:22:54.975Z,9.42
2022-12-26T00:23:08.205Z,9.40
2022-12-26T00:23:19.915Z,9.40
2022-12-26T00:23:30.681Z,9.40
2022-12-26T00:23:41.416Z,9.40
2022-12-26T00:23:52.146Z,9.40
2022-12-26T00:24:02.915Z,9.42
2022-12-26T00:24:13.641Z,9.39
2022-12-26T00:24:24.371Z,9.39
2022-12-26T00:24:35.107Z,9.40
2022-12-26T00:24:45.845Z,9.40
2022-12-26T00:24:56.580Z,9.39
2022-12-26T00:25:07.312Z,9.39
2022-12-26T00:25:19.729Z,9.40
2022-12-26T00:25:30.499Z,9.40
2022-12-26T00:25:41.470Z,9.39
2022-12-26T00:25:52.200Z,9.39
2022-12-26T00:26:02.942Z,9.38
2022-12-26T00:26:13.679Z,9.38
2022-12-26T00:26:24.409Z,9.39
2022-12-26T00:26:35.140Z,9.39
2022-12-26T00:26:47.372Z,9.39
2022-12-26T00:26:58.107Z,9.39
2022-12-26T00:27:08.829Z,9.39
2022-12-26T00:27:19.566Z,9.35
2022-12-26T00:27:30.289Z,9.35
2022-12-26T00:27:41.068Z,9.38
2022-12-26T00:27:52.759Z,9.35
2022-12-26T00:28:03.503Z,9.35
2022-12-26T00:28:14.247Z,9.38
2022-12-26T00:28:25.956Z,9.38
2022-12-26T00:28:43.190Z,9.35
2022-12-26T00:28:55.610Z,9.35
2022-12-26T00:29:08.085Z,9.35
2022-12-26T00:29:18.803Z,9.35
2022-12-26T00:29:29.568Z,9.35
2022-12-26T00:29:40.310Z,9.34
2022-12-26T00:29:51.050Z,9.38
2022-12-26T00:30:01.820Z,9.38
2022-12-26T00:30:13.567Z,9.35
2022-12-26T00:30:24.297Z,9.35
2022-12-26T00:30:36.719Z,9.38
2022-12-26T00:30:47.494Z,9.35
2022-12-26T00:30:58.471Z,9.35
2022-12-26T00:31:11.720Z,9.38
2022-12-26T00:31:23.966Z,9.38
2022-12-26T00:31:34.773Z,9.35
2022-12-26T00:31:45.545Z,9.38
2022-12-26T00:31:56.401Z,9.38
2022-12-26T00:32:07.164Z,9.38
2022-12-26T00:32:19.613Z,9.38
2022-12-26T00:32:31.284Z,9.39
2022-12-26T00:32:44.992Z,9.38
2022-12-26T00:32:57.224Z,9.39
2022-12-26T00:33:08.931Z,9.39
2022-12-26T00:33:20.892Z,9.38
2022-12-26T00:33:31.650Z,9.39
2022-12-26T00:33:44.067Z,9.39
2022-12-26T00:33:54.810Z,9.39
2022-12-26T00:34:05.565Z,9.38
2022-12-26T00:34:16.283Z,9.39
2022-12-26T00:34:27.026Z,9.39
2022-12-26T00:34:37.750Z,9.38
2022-12-26T00:34:50.165Z,9.39
2022-12-26T00:35:00.932Z,9.39
2022-12-26T00:35:11.665Z,9.39
2022-12-26T00:35:22.666Z,9.39
2022-12-26T00:35:33.382Z,9.39
2022-12-26T00:35:45.874Z,9.39
2022-12-26T00:35:56.613Z,9.39
2022-12-26T00:36:07.354Z,9.39
2022-12-26T00:36:18.085Z,9.39
2022-12-26T00:36:28.843Z,9.39
2022-12-26T00:36:39.585Z,9.40
2022-12-26T00:36:50.315Z,9.39
2022-12-26T00:37:01.110Z,9.39
2022-12-26T00:37:11.864Z,9.38
2022-12-26T00:37:22.599Z,9.38
2022-12-26T00:37:33.572Z,9.39
2022-12-26T00:37:44.305Z,9.38
2022-12-26T00:37:56.001Z,9.39
2022-12-26T00:38:06.761Z,9.39
2022-12-26T00:38:17.494Z,9.39
2022-12-26T00:38:28.223Z,9.39
2022-12-26T00:38:38.953Z,9.39
2022-12-26T00:38:53.153Z,9.38
2022-12-26T00:39:05.923Z,9.38
2022-12-26T00:39:19.132Z,9.39
2022-12-26T00:39:31.608Z,9.38
2022-12-26T00:39:44.059Z,9.39
2022-12-26T00:39:54.809Z,9.38
2022-12-26T00:40:05.544Z,9.38
2022-12-26T00:40:16.281Z,9.38
2022-12-26T00:40:27.974Z,9.39
2022-12-26T00:40:38.724Z,9.38
2022-12-26T00:40:49.469Z,9.38
2022-12-26T00:41:02.677Z,9.40
2022-12-26T00:41:13.409Z,9.40
2022-12-26T00:41:25.851Z,9.39
2022-12-26T00:41:40.967Z,9.39
2022-12-26T00:41:51.706Z,9.39
2022-12-26T00:42:04.139Z,9.38
2022-12-26T00:42:14.875Z,9.40
2022-12-26T00:42:27.348Z,9.39
2022-12-26T00:42:39.795Z,9.39
2022-12-26T00:42:52.248Z,9.38
2022-12-26T00:43:04.465Z,9.39
2022-12-26T00:43:18.695Z,9.39
2022-12-26T00:43:29.445Z,9.39
2022-12-26T00:43:41.666Z,9.38
2022-12-26T00:43:52.418Z,9.38
2022-12-26T00:44:06.143Z,9.39
2022-12-26T00:44:16.874Z,9.39
2022-12-26T00:44:27.610Z,9.39
2022-12-26T00:44:38.387Z,9.39
2022-12-26T00:44:49.104Z,9.39
2022-12-26T00:44:59.845Z,9.39
2022-12-26T00:45:10.577Z,9.38
2022-12-26T00:45:21.319Z,9.38
2022-12-26T00:45:32.072Z,9.39
2022-12-26T00:45:44.505Z,9.39
2022-12-26T00:45:55.248Z,9.39
2022-12-26T00:46:06.005Z,9.38
2022-12-26T00:46:18.321Z,9.38
2022-12-26T00:46:29.154Z,9.39
2022-12-26T00:46:39.893Z,9.39
2022-12-26T00:46:50.713Z,9.38
2022-12-26T00:47:01.538Z,9.39
2022-12-26T00:47:12.350Z,9.39
2022-12-26T00:47:23.208Z,9.39
2022-12-26T00:47:33.954Z,9.38
2022-12-26T00:47:44.708Z,9.38
2022-12-26T00:47:55.466Z,9.38
2022-12-26T00:48:06.175Z,9.39
2022-12-26T00:48:16.939Z,9.38
2022-12-26T00:48:27.672Z,9.38
2022-12-26T00:48:38.637Z,9.39
2022-12-26T00:48:49.386Z,9.39
2022-12-26T00:49:00.111Z,9.38
2022-12-26T00:49:12.564Z,9.38
2022-12-26T00:49:24.097Z,9.38
2022-12-26T00:50:12.540Z,9.35
2022-12-26T00:50:12.607Z,9.38
2022-12-26T00:50:12.666Z,9.38
2022-12-26T00:50:32.641Z,9.35
2022-12-26T00:50:42.730Z,9.35
2022-12-26T00:50:53.507Z,9.35
2022-12-26T00:51:04.257Z,9.35
2022-12-26T00:51:15.977Z,9.35
2022-12-26T00:51:27.693Z,9.35
2022-12-26T00:51:38.418Z,9.35
2022-12-26T00:51:50.632Z,9.34
2022-12-26T00:52:03.350Z,9.34
2022-12-26T00:52:14.091Z,9.34
2022-12-26T00:52:27.786Z,9.34
2022-12-26T00:52:38.551Z,9.34
2022-12-26T00:52:49.305Z,9.34
2022-12-26T00:53:01.752Z,9.34
2022-12-26T00:53:14.197Z,9.34
2022-12-26T00:53:26.650Z,9.34
2022-12-26T00:53:40.994Z,9.34
2022-12-26T00:53:52.752Z,9.32
2022-12-26T00:54:04.986Z,9.32
2022-12-26T00:54:15.716Z,9.34
2022-12-26T00:54:27.482Z,9.34
2022-12-26T00:54:38.220Z,9.34
2022-12-26T00:54:48.990Z,9.32
2022-12-26T00:55:01.462Z,9.34
2022-12-26T00:55:12.183Z,9.32
2022-12-26T00:55:23.893Z,9.32
2022-12-26T00:55:35.667Z,9.32
2022-12-26T00:55:46.417Z,9.32
2022-12-26T00:55:57.157Z,9.31
2022-12-26T00:56:07.956Z,9.34
2022-12-26T00:56:19.634Z,9.34
2022-12-26T00:56:30.400Z,9.34
2022-12-26T00:56:41.129Z,9.31
2022-12-26T00:56:51.871Z,9.34
2022-12-26T00:57:02.600Z,9.32
2022-12-26T00:57:13.328Z,9.32
2022-12-26T00:57:25.027Z,9.32
2022-12-26T00:57:35.781Z,9.31
2022-12-26T00:57:48.208Z,9.31
2022-12-26T00:57:58.950Z,9.32
2022-12-26T00:58:09.679Z,9.31
2022-12-26T00:58:20.449Z,9.32
2022-12-26T00:58:31.203Z,9.34
2022-12-26T00:58:42.008Z,9.32
2022-12-26T00:58:54.436Z,9.32
2022-12-26T00:59:05.171Z,9.32
2022-12-26T00:59:15.880Z,9.35
2022-12-26T00:59:26.620Z,9.34
2022-12-26T00:59:40.341Z,9.32
2022-12-26T00:59:52.589Z,9.34
2022-12-26T01:00:03.365Z,9.34
2022-12-26T01:00:14.147Z,9.32
2022-12-26T01:00:25.910Z,9.34
2022-12-26T01:00:36.777Z,9.34
2022-12-26T01:00:47.609Z,9.34
2022-12-26T01:00:58.426Z,9.34
2022-12-26T01:01:09.525Z,9.32
2022-12-26T01:01:22.044Z,9.32
2022-12-26T01:01:33.063Z,9.34
2022-12-26T01:01:45.752Z,9.32
2022-12-26T01:01:56.808Z,9.34
2022-12-26T01:02:09.930Z,9.35
2022-12-26T01:02:21.824Z,9.34
2022-12-26T01:02:34.252Z,9.34
2022-12-26T01:02:45.941Z,9.32
2022-12-26T01:02:58.599Z,9.34
2022-12-26T01:03:10.445Z,9.34
2022-12-26T01:03:22.342Z,9.35
2022-12-26T01:03:33.153Z,9.34
2022-12-26T01:03:44.930Z,9.34
2022-12-26T01:03:55.694Z,9.34
2022-12-26T01:04:06.426Z,9.35
2022-12-26T01:04:17.275Z,9.35
2022-12-26T01:04:27.991Z,9.35
2022-12-26T01:04:38.781Z,9.35
2022-12-26T01:04:49.574Z,9.35
2022-12-26T01:05:00.363Z,9.35
2022-12-26T01:05:11.111Z,9.35
2022-12-26T01:05:21.871Z,9.34
2022-12-26T01:05:33.591Z,9.34
2022-12-26T01:05:44.321Z,9.35
2022-12-26T01:05:58.064Z,9.35
2022-12-26T01:06:08.792Z,9.35
2022-12-26T01:06:19.534Z,9.34
2022-12-26T01:06:31.972Z,9.34
2022-12-26T01:06:43.710Z,9.34
2022-12-26T01:06:56.974Z,9.34
2022-12-26T01:07:07.724Z,9.34
2022-12-26T01:07:20.183Z,9.34
2022-12-26T01:07:30.964Z,9.34
2022-12-26T01:08:19.570Z,9.35
2022-12-26T01:08:21.336Z,9.35
2022-12-26T01:08:22.944Z,9.35
2022-12-26T01:08:29.491Z,9.38
2022-12-26T01:08:41.200Z,9.35
2022-12-26T01:08:51.961Z,9.38
2022-12-26T01:09:02.710Z,9.38
2022-12-26T01:09:13.462Z,9.35
2022-12-26T01:09:24.225Z,9.35
2022-12-26T01:09:34.962Z,9.35
2022-12-26T01:09:45.683Z,9.38
2022-12-26T01:09:56.423Z,9.35
2022-12-26T01:10:08.114Z,9.38
2022-12-26T01:10:18.861Z,9.38
2022-12-26T01:10:29.641Z,9.35
2022-12-26T01:10:40.394Z,9.38
2022-12-26T01:10:51.757Z,9.39
2022-12-26T01:11:02.493Z,9.35
2022-12-26T01:11:13.233Z,9.35
2022-12-26T01:11:24.173Z,9.38
2022-12-26T01:11:34.912Z,9.35
2022-12-26T01:11:47.128Z,9.38
2022-12-26T01:11:57.858Z,9.35
2022-12-26T01:12:08.594Z,9.35
2022-12-26T01:12:19.337Z,9.35
2022-12-26T01:12:30.065Z,9.38
2022-12-26T01:12:40.802Z,9.35
2022-12-26T01:12:51.577Z,9.38
2022-12-26T01:13:04.066Z,9.38
2022-12-26T01:13:14.908Z,9.38
2022-12-26T01:13:27.350Z,9.38
2022-12-26T01:13:40.053Z,9.35
2022-12-26T01:13:50.785Z,9.38
2022-12-26T01:14:02.515Z,9.38
2022-12-26T01:14:13.243Z,9.39
2022-12-26T01:14:23.986Z,9.38
2022-12-26T01:14:34.714Z,9.39
2022-12-26T01:14:45.476Z,9.38
2022-12-26T01:14:57.943Z,9.38
2022-12-26T01:15:08.778Z,9.38
2022-12-26T01:15:19.523Z,9.39
2022-12-26T01:15:30.307Z,9.39
2022-12-26T01:15:41.044Z,9.39
2022-12-26T01:15:53.480Z,9.39
2022-12-26T01:16:04.300Z,9.38
2022-12-26T01:16:17.284Z,9.39
2022-12-26T01:16:28.141Z,9.39
2022-12-26T01:16:38.960Z,9.39
2022-12-26T01:16:51.953Z,9.39
2022-12-26T01:17:02.745Z,9.39
2022-12-26T01:17:15.458Z,9.39
2022-12-26T01:17:27.273Z,9.39
2022-12-26T01:17:38.996Z,9.40
2022-12-26T01:17:50.703Z,9.40
2022-12-26T01:18:02.445Z,9.40
2022-12-26T01:18:13.193Z,9.40
2022-12-26T01:18:23.969Z,9.40
2022-12-26T01:18:34.708Z,9.40
2022-12-26T01:18:45.451Z,9.42
2022-12-26T01:18:56.181Z,9.40
2022-12-26T01:19:06.906Z,9.40
2022-12-26T01:19:17.700Z,9.40
2022-12-26T01:19:28.476Z,9.40
2022-12-26T01:19:39.205Z,9.39
2022-12-26T01:19:49.947Z,9.39
2022-12-26T01:20:00.709Z,9.39
2022-12-26T01:20:11.469Z,9.39
2022-12-26T01:20:22.166Z,9.38
2022-12-26T01:20:32.910Z,9.39
2022-12-26T01:20:43.635Z,9.39
2022-12-26T01:20:55.336Z,9.39
2022-12-26T01:21:06.131Z,9.39
2022-12-26T01:21:18.552Z,9.39
2022-12-26T01:21:29.276Z,9.38
2022-12-26T01:21:40.036Z,9.39
2022-12-26T01:21:51.577Z,9.38
2022-12-26T01:22:03.768Z,9.38
2022-12-26T01:22:14.565Z,9.39
2022-12-26T01:22:25.287Z,9.38
2022-12-26T01:22:36.018Z,9.39
2022-12-26T01:22:46.749Z,9.38
2022-12-26T01:22:57.486Z,9.38
2022-12-26T01:23:08.238Z,9.38
2022-12-26T01:23:18.976Z,9.38
2022-12-26T01:23:33.234Z,9.38
2022-12-26T01:23:45.981Z,9.35
2022-12-26T01:23:56.709Z,9.38
2022-12-26T01:24:07.502Z,9.38
2022-12-26T01:24:19.220Z,9.38
2022-12-26T01:24:29.977Z,9.34
2022-12-26T01:24:42.390Z,9.35
2022-12-26T01:24:53.126Z,9.35
2022-12-26T01:25:03.884Z,9.34
2022-12-26T01:25:15.599Z,9.35
2022-12-26T01:25:27.800Z,9.35
2022-12-26T01:26:15.182Z,9.35
2022-12-26T01:26:17.015Z,9.35
2022-12-26T01:26:17.605Z,9.35
2022-12-26T01:26:27.085Z,9.32
2022-12-26T01:26:40.295Z,9.34
2022-12-26T01:26:51.069Z,9.34
2022-12-26T01:27:01.814Z,9.32
2022-12-26T01:27:12.538Z,9.32
2022-12-26T01:27:23.291Z,9.32
2022-12-26T01:27:35.771Z,9.31
2022-12-26T01:27:48.250Z,9.34
2022-12-26T01:28:00.694Z,9.32
2022-12-26T01:28:12.396Z,9.31
2022-12-26T01:28:25.332Z,9.31
2022-12-26T01:28:38.528Z,9.32
2022-12-26T01:28:50.970Z,9.31
2022-12-26T01:29:01.698Z,9.31
2022-12-26T01:29:12.438Z,9.31
2022-12-26T01:29:23.167Z,9.32
2022-12-26T01:29:33.907Z,9.30
2022-12-26T01:29:44.671Z,9.31
2022-12-26T01:29:55.629Z,9.31
2022-12-26T01:30:06.385Z,9.30
2022-12-26T01:30:17.108Z,9.31
2022-12-26T01:30:27.849Z,9.31
2022-12-26T01:30:38.606Z,9.30
2022-12-26T01:30:49.356Z,9.31
2022-12-26T01:31:00.120Z,9.31
2022-12-26T01:31:10.907Z,9.31
2022-12-26T01:31:21.789Z,9.31
2022-12-26T01:31:32.543Z,9.31
2022-12-26T01:31:43.316Z,9.32
2022-12-26T01:31:54.161Z,9.32
2022-12-26T01:32:04.960Z,9.32
2022-12-26T01:32:15.749Z,9.32
2022-12-26T01:32:27.459Z,9.32
2022-12-26T01:32:38.230Z,9.32
2022-12-26T01:32:48.989Z,9.34
2022-12-26T01:32:59.717Z,9.34
2022-12-26T01:33:11.422Z,9.34
2022-12-26T01:33:23.146Z,9.34
2022-12-26T01:33:36.088Z,9.32
2022-12-26T01:33:50.724Z,9.34
2022-12-26T01:34:03.200Z,9.32
2022-12-26T01:34:15.675Z,9.34
2022-12-26T01:34:26.442Z,9.31
2022-12-26T01:34:37.172Z,9.32
2022-12-26T01:34:49.619Z,9.32
2022-12-26T01:35:00.359Z,9.32
2022-12-26T01:35:11.098Z,9.32
2022-12-26T01:35:21.840Z,9.32
2022-12-26T01:35:34.261Z,9.32
2022-12-26T01:35:45.011Z,9.32
2022-12-26T01:35:55.780Z,9.32
2022-12-26T01:36:06.516Z,9.34
2022-12-26T01:36:17.289Z,9.32
2022-12-26T01:36:28.026Z,9.34
2022-12-26T01:36:38.759Z,9.32
2022-12-26T01:36:49.500Z,9.32
2022-12-26T01:37:01.737Z,9.32
2022-12-26T01:37:12.500Z,9.32
2022-12-26T01:37:23.233Z,9.32
2022-12-26T01:37:34.003Z,9.34
2022-12-26T01:37:44.740Z,9.34
2022-12-26T01:37:57.209Z,9.32
2022-12-26T01:38:09.714Z,9.32
2022-12-26T01:38:21.432Z,9.34
2022-12-26T01:38:33.879Z,9.34
2022-12-26T01:38:46.323Z,9.32
2022-12-26T01:38:58.557Z,9.34
2022-12-26T01:39:09.289Z,9.35
2022-12-26T01:39:20.059Z,9.35
2022-12-26T01:39:30.793Z,9.35
2022-12-26T01:39:41.521Z,9.38
2022-12-26T01:39:52.280Z,9.39
2022-12-26T01:40:03.009Z,9.40
2022-12-26T01:40:13.753Z,9.39
2022-12-26T01:40:25.478Z,9.39
2022-12-26T01:40:37.211Z,9.42
2022-12-26T01:40:47.913Z,9.40
2022-12-26T01:40:58.683Z,9.40
2022-12-26T01:41:10.345Z,9.40
2022-12-26T01:41:21.167Z,9.42
2022-12-26T01:41:31.853Z,9.40
2022-12-26T01:41:42.582Z,9.40
2022-12-26T01:41:54.281Z,9.43
2022-12-26T01:42:05.012Z,9.43
2022-12-26T01:42:15.741Z,9.40
2022-12-26T01:42:26.485Z,9.42
2022-12-26T01:42:38.172Z,9.42
2022-12-26T01:42:48.934Z,9.40
2022-12-26T01:42:59.812Z,9.40
2022-12-26T01:43:10.523Z,9.42
2022-12-26T01:43:21.255Z,9.42
2022-12-26T01:43:32.981Z,9.42
2022-12-26T01:43:43.712Z,9.43
2022-12-26T01:43:56.630Z,9.43
2022-12-26T01:44:11.404Z,9.43
2022-12-26T01:44:23.868Z,9.42
2022-12-26T01:44:36.304Z,9.43
2022-12-26T01:44:47.073Z,9.42
2022-12-26T01:45:00.024Z,9.45
2022-12-26T01:45:10.852Z,9.43
2022-12-26T01:45:22.575Z,9.43
2022-12-26T01:45:33.310Z,9.45
2022-12-26T01:45:44.136Z,9.43
2022-12-26T01:45:56.914Z,9.45
2022-12-26T01:46:09.473Z,9.45
2022-12-26T01:46:20.281Z,9.45
2022-12-26T01:46:32.765Z,9.46
2022-12-26T01:46:45.683Z,9.48
2022-12-26T01:46:58.391Z,9.48
2022-12-26T01:47:10.574Z,9.50
2022-12-26T01:47:22.563Z,9.48
2022-12-26T01:47:33.321Z,9.49
2022-12-26T01:47:44.044Z,9.50
2022-12-26T01:47:54.863Z,9.49
2022-12-26T01:48:07.296Z,9.50
2022-12-26T01:48:19.246Z,9.50
2022-12-26T01:48:32.460Z,9.50
2022-12-26T01:48:45.694Z,9.50
2022-12-26T01:48:57.884Z,9.50
2022-12-26T01:49:08.634Z,9.50
2022-12-26T01:49:19.368Z,9.52
2022-12-26T01:49:31.083Z,9.52
2022-12-26T01:49:41.820Z,9.50
2022-12-26T01:49:52.554Z,9.52
2022-12-26T01:50:03.294Z,9.50
2022-12-26T01:50:14.055Z,9.52
2022-12-26T01:50:25.736Z,9.52
2022-12-26T01:50:36.482Z,9.52
2022-12-26T01:50:47.243Z,9.52
2022-12-26T01:50:57.974Z,9.52
2022-12-26T01:51:08.712Z,9.52
2022-12-26T01:51:19.446Z,9.52
2022-12-26T01:51:30.198Z,9.52
2022-12-26T01:51:40.924Z,9.50
2022-12-26T01:51:51.699Z,9.52
2022-12-26T01:52:02.486Z,9.50
2022-12-26T01:52:14.176Z,9.52
2022-12-26T01:52:24.908Z,9.52
2022-12-26T01:52:35.631Z,9.50
2022-12-26T01:52:46.385Z,9.52
2022-12-26T01:52:57.107Z,9.50
2022-12-26T01:53:07.887Z,9.50
2022-12-26T01:53:18.625Z,9.52
2022-12-26T01:53:31.060Z,9.52
2022-12-26T01:53:41.787Z,9.50
2022-12-26T01:53:52.568Z,9.50
2022-12-26T01:54:38.270Z,9.50
2022-12-26T01:54:39.928Z,9.50
2022-12-26T01:54:42.361Z,9.50
2022-12-26T01:54:54.094Z,9.50
2022-12-26T01:55:06.813Z,9.52
2022-12-26T01:55:17.562Z,9.52
2022-12-26T01:55:29.300Z,9.50
2022-12-26T01:55:41.722Z,9.52
2022-12-26T01:55:52.456Z,9.50
2022-12-26T01:56:03.196Z,9.50
2022-12-26T01:56:16.167Z,9.50
2022-12-26T01:56:29.375Z,9.52
2022-12-26T01:56:40.097Z,9.52
2022-12-26T01:56:50.856Z,9.52
2022-12-26T01:57:03.317Z,9.53
2022-12-26T01:57:15.009Z,9.52
2022-12-26T01:57:25.767Z,9.53
2022-12-26T01:57:39.493Z,9.53
2022-12-26T01:57:52.678Z,9.53
2022-12-26T01:58:03.409Z,9.56
2022-12-26T01:58:14.169Z,9.53
2022-12-26T01:58:24.947Z,9.53
2022-12-26T01:58:37.212Z,9.53
2022-12-26T01:58:50.132Z,9.53
2022-12-26T01:59:00.897Z,9.53
2022-12-26T01:59:11.636Z,9.53
2022-12-26T01:59:22.379Z,9.53
2022-12-26T01:59:33.110Z,9.53
2022-12-26T01:59:43.877Z,9.53
2022-12-26T01:59:55.577Z,9.53
2022-12-26T02:00:06.316Z,9.53
2022-12-26T02:00:17.037Z,9.53
2022-12-26T02:00:27.803Z,9.53
2022-12-26T02:00:39.593Z,9.53
2022-12-26T02:00:50.349Z,9.53
2022-12-26T02:01:02.061Z,9.53
2022-12-26T02:01:12.927Z,9.56
2022-12-26T02:01:23.730Z,9.56
2022-12-26T02:01:34.645Z,9.53
2022-12-26T02:01:47.399Z,9.52
2022-12-26T02:01:59.347Z,9.56
2022-12-26T02:02:10.355Z,9.53
2022-12-26T02:02:22.453Z,9.56
2022-12-26T02:02:34.464Z,9.53
2022-12-26T02:02:45.439Z,9.53
2022-12-26T02:02:56.343Z,9.53
2022-12-26T02:03:07.107Z,9.53
2022-12-26T02:03:17.908Z,9.56
2022-12-26T02:03:28.790Z,9.53
2022-12-26T02:03:39.552Z,9.56
2022-12-26T02:03:51.258Z,9.56
2022-12-26T02:04:01.990Z,9.56
2022-12-26T02:04:12.716Z,9.53
2022-12-26T02:04:23.466Z,9.56
2022-12-26T02:04:35.923Z,9.53
2022-12-26T02:04:55.541Z,9.56
2022-12-26T02:05:05.784Z,9.56
2022-12-26T02:05:18.764Z,9.56
2022-12-26T02:05:29.541Z,9.56
2022-12-26T02:05:41.989Z,9.56
2022-12-26T02:05:52.750Z,9.56
2022-12-26T02:06:04.501Z,9.56
2022-12-26T02:06:15.258Z,9.56
2022-12-26T02:06:26.005Z,9.56
2022-12-26T02:06:38.481Z,9.56
2022-12-26T02:06:50.915Z,9.57
2022-12-26T02:07:01.633Z,9.57
2022-12-26T02:07:12.392Z,9.56
2022-12-26T02:07:25.580Z,9.57
2022-12-26T02:07:37.998Z,9.57
2022-12-26T02:07:49.690Z,9.57
2022-12-26T02:08:02.929Z,9.57
2022-12-26T02:08:13.671Z,9.57
2022-12-26T02:08:24.420Z,9.57
2022-12-26T02:08:35.224Z,9.58
2022-12-26T02:08:47.418Z,9.57
2022-12-26T02:08:59.135Z,9.57
2022-12-26T02:09:12.363Z,9.58
2022-12-26T02:09:24.799Z,9.57
2022-12-26T02:09:35.540Z,9.58
2022-12-26T02:09:47.211Z,9.58
2022-12-26T02:09:59.677Z,9.58
2022-12-26T02:10:10.412Z,9.57
2022-12-26T02:10:21.142Z,9.57
2022-12-26T02:10:31.880Z,9.58
2022-12-26T02:10:42.624Z,9.56
2022-12-26T02:10:53.354Z,9.57
2022-12-26T02:11:04.096Z,9.58
2022-12-26T02:11:14.849Z,9.57
2022-12-26T02:11:25.864Z,9.58
2022-12-26T02:11:38.292Z,9.57
2022-12-26T02:11:49.068Z,9.57
2022-12-26T02:12:34.934Z,9.57
2022-12-26T02:12:35.175Z,9.58
2022-12-26T02:12:39.497Z,9.58
2022-12-26T02:12:51.265Z,9.58
2022-12-26T02:13:03.672Z,9.58
2022-12-26T02:13:14.436Z,9.58
2022-12-26T02:13:25.152Z,9.58
2022-12-26T02:13:35.881Z,9.58
2022-12-26T02:13:47.852Z,9.58
2022-12-26T02:13:58.615Z,9.58
2022-12-26T02:14:10.325Z,9.58
2022-12-26T02:14:21.052Z,9.58
2022-12-26T02:14:31.782Z,9.58
2022-12-26T02:14:42.522Z,9.58
2022-12-26T02:14:54.259Z,9.58
2022-12-26T02:15:06.998Z,9.58
2022-12-26T02:15:20.643Z,9.60
2022-12-26T02:15:32.840Z,9.58
2022-12-26T02:15:44.553Z,9.58
2022-12-26T02:15:56.272Z,9.58
2022-12-26T02:16:07.047Z,9.58
2022-12-26T02:16:17.831Z,9.58
2022-12-26T02:16:28.623Z,9.58
2022-12-26T02:16:39.424Z,9.57
2022-12-26T02:16:50.297Z,9.58
2022-12-26T02:17:02.894Z,9.58
2022-12-26T02:17:15.382Z,9.60
2022-12-26T02:17:28.583Z,9.58
2022-12-26T02:17:39.336Z,9.60
2022-12-26T02:17:51.316Z,9.60
2022-12-26T02:18:02.107Z,9.60
2022-12-26T02:18:14.041Z,9.60
2022-12-26T02:18:27.752Z,9.58
2022-12-26T02:18:38.491Z,9.58
2022-12-26T02:18:50.192Z,9.58
2022-12-26T02:19:00.922Z,9.58
2022-12-26T02:19:12.893Z,9.60
2022-12-26T02:19:23.655Z,9.58
2022-12-26T02:19:35.893Z,9.58
2022-12-26T02:19:48.332Z,9.58
2022-12-26T02:20:00.801Z,9.58
2022-12-26T02:20:11.565Z,9.58
2022-12-26T02:20:22.309Z,9.58
2022-12-26T02:20:33.991Z,9.60
2022-12-26T02:20:44.728Z,9.58
2022-12-26T02:20:55.454Z,9.58
2022-12-26T02:21:06.186Z,9.58
2022-12-26T02:21:16.914Z,9.60
2022-12-26T02:21:27.654Z,9.58
2022-12-26T02:21:38.395Z,9.57
2022-12-26T02:21:50.093Z,9.57
2022-12-26T02:22:00.835Z,9.56
2022-12-26T02:22:11.584Z,9.56
2022-12-26T02:22:22.336Z,9.57
2022-12-26T02:22:33.058Z,9.56
2022-12-26T02:22:43.786Z,9.57
2022-12-26T02:22:55.485Z,9.56
2022-12-26T02:23:06.211Z,9.56
2022-12-26T02:23:16.944Z,9.56
2022-12-26T02:23:27.708Z,9.56
2022-12-26T02:23:38.450Z,9.57
2022-12-26T02:23:49.417Z,9.56
2022-12-26T02:24:00.148Z,9.56
2022-12-26T02:24:10.883Z,9.56
2022-12-26T02:24:22.588Z,9.56
2022-12-26T02:24:35.025Z,9.56
2022-12-26T02:24:45.784Z,9.56
2022-12-26T02:24:57.474Z,9.53
2022-12-26T02:25:09.165Z,9.53
2022-12-26T02:25:19.935Z,9.56
2022-12-26T02:25:32.887Z,9.56
2022-12-26T02:25:45.367Z,9.53
2022-12-26T02:25:58.112Z,9.53
2022-12-26T02:26:08.905Z,9.53
2022-12-26T02:26:19.644Z,9.53
2022-12-26T02:26:32.087Z,9.52
2022-12-26T02:26:44.803Z,9.53
2022-12-26T02:26:55.546Z,9.53
2022-12-26T02:27:06.288Z,9.53
2022-12-26T02:27:18.737Z,9.52
2022-12-26T02:27:30.462Z,9.53
2022-12-26T02:27:41.196Z,9.53
2022-12-26T02:27:51.936Z,9.56
2022-12-26T02:28:04.373Z,9.53
2022-12-26T02:28:15.119Z,9.53
2022-12-26T02:28:27.539Z,9.56
2022-12-26T02:28:40.542Z,9.53
2022-12-26T02:28:52.248Z,9.56
2022-12-26T02:29:03.950Z,9.57
2022-12-26T02:29:14.724Z,9.56
2022-12-26T02:29:27.200Z,9.53
2022-12-26T02:29:40.193Z,9.56
2022-12-26T02:29:54.391Z,9.56
2022-12-26T02:30:06.832Z,9.56
2022-12-26T02:30:18.544Z,9.56
2022-12-26T02:30:30.257Z,9.56
2022-12-26T02:30:40.998Z,9.56
2022-12-26T02:30:51.752Z,9.56
2022-12-26T02:31:02.497Z,9.56
2022-12-26T02:31:13.680Z,9.53
2022-12-26T02:31:24.435Z,9.56
2022-12-26T02:31:35.212Z,9.53
2022-12-26T02:31:46.035Z,9.53
2022-12-26T02:31:56.808Z,9.53
2022-12-26T02:32:07.629Z,9.56
2022-12-26T02:32:18.541Z,9.53
2022-12-26T02:32:29.287Z,9.53
2022-12-26T02:32:40.052Z,9.53
2022-12-26T02:32:50.798Z,9.53
2022-12-26T02:33:01.532Z,9.53
2022-12-26T02:33:12.259Z,9.53
2022-12-26T02:33:22.999Z,9.53
2022-12-26T02:33:35.419Z,9.52